Mud River, Canada
Current Conditions -  °F | °C
As of 12:16 AM on Friday 19 Dec 2014 (Local Time) from CYXS Reporting Station
Haze Haze  
Wind Chill: 23°   Ceiling: 9100
Heat Index: 30°   Visibility: 6mi
Dew Point: 28°   Wind: 8mph
Humidity: 93%   Direction: 360°N
Pressure: 29.52"   Gusts: NA
Location:  53.77°N, 123.05°W
Report Text: CYXS 190816Z AUTO 36007KT 6SM BR FEW065 BKN091 M01/M02 A2952 RMK PRESFR SLP026
Loading
Personal Weather Stations






























Interactive Weather Map New forecast layout! Learn more

10-Day Weather Forecast

Advertisements
Track Severe Weather on mobile